Vaduz, Liechtenstein

8:06 PM CEST on October 20, 2014 (GMT +0200)
IOBERLAN3 | Change Station
CLOSE
Current Station
Personal Weather Station
Location: Vaduz, Oberland
Elevation: 1690 ft
Nearby Weather Stations

Elev 1690 ft 47.15 °N, 9.52 °E | Updated 3 minutes ago

Clear
Clear
63.3 °F
Feels Like 63.3 °F
N
1.0
Wind Variable Wind from NE
Gusts 2.0 mph

Today
High -- | Low -- °F
--% Chance of Precip.
Yesterday
High -- | Low -- °F
Precip. -- in
7:46 AM 6:25 PM
Waning Crescent, 10% visible
Pressure 30.06 in
Visibility -9999.0 miles
Clouds
Dew Point 52 °F
Humidity 67%
Rainfall 0.00 in
Snow Depth Not available.
UV 0.0 out of 12
Pollen Not available.
Air Quality Not available.
Flu Activity Not available.
METAR LSZR 201750Z VRB01KT CAVOK 17/15 Q1018 NOSIG RMK O

More Conditions Fewer Conditions

Pressure 30.06 in
Visibility -9999.0 miles
Clouds
Dew Point 52 °F
Humidity 67%
Rainfall 0.00 in
Snow Depth Not available.
UV 0.0 out of 12
Pollen Not available.
Air Quality Not available.
Flu Activity Not available.
METAR LSZR 201750Z VRB01KT CAVOK 17/15 Q1018 NOSIG RMK O

More Conditions Fewer Conditions

10-Day Weather Forecast

Almanac

Astronomy

Oct. 20, 2014 Rise Set
Actual Time 7:46 AM CEST 6:25 PM CEST
Civil Twilight 7:15 AM CEST 6:56 PM CEST
Nautical Twilight 6:40 AM CEST 7:32 PM CEST
Astronomical Twilight 6:05 AM CEST 8:07 PM CEST
Moon 4:06 AM CEST 4:51 PM CEST
Length of Visible Light 11h 40m
Length of Day
10h 38m
Tomorrow will be 3m 14s shorter.
Waning Crescent, 10% of the Moon is Illuminated
Today
Waning Crescent
Oct 23
New
Oct 30
First Quarter
Nov 6
Full
Nov 14
Last Quarter

Today's Extremes

Country Highs Country Lows

Community

WunderPhotos

Upload Photos

1,763,455 photos uploaded!

Nearby

Snow Depth

Not available.

Earthquake Activity

City Distance Mag. Time & Date
No recent earthquake activity has been reported nearby.
Minimum magnitude displayed is 2.5.

Coastal Water Temperatures

Place Temperature
No Stations Reporting

Nearby Weather Stations